Time;durP1;ratioP1;P1;durP2;ratioP2;P2;SDS_P1;SDS_P2;PMS_P1;PMS_P2;Temp;Humidity;BMP_temperature;BMP_pressure;BME280_temperature;BME280_humidity;BME280_pressure;Samples;Min_cycle;Max_cycle;Signal;HPM_P1;HPM_P2
2022/01/27 00:05:18;;;;;;;44.50;24.70;;;;;;;-4.92;68.13;101174.39;1768129;80;21437;-73
2022/01/27 00:08:01;;;;;;;42.58;26.70;;;;;;;-4.86;68.18;101176.19;1768497;80;21374;-74
2022/01/27 00:10:28;;;;;;;47.83;27.77;;;;;;;-4.81;68.01;101180.50;1765228;81;21802;-72
2022/01/27 00:12:45;;;;;;;43.02;25.72;;;;;;;-4.84;67.78;101179.63;1765653;81;20976;-73
2022/01/27 00:15:16;;;;;;;50.55;27.32;;;;;;;-4.91;67.67;101180.36;1768340;81;21458;-73
2022/01/27 00:17:57;;;;;;;48.55;26.37;;;;;;;-4.97;67.76;101180.31;1768187;80;20900;-73
2022/01/27 00:20:13;;;;;;;47.62;27.48;;;;;;;-5.07;67.71;101184.03;1765465;81;20857;-72
2022/01/27 00:22:40;;;;;;;54.93;31.35;;;;;;;-5.07;68.22;101181.88;1768334;80;21562;-73
2022/01/27 00:25:08;;;;;;;58.23;36.03;;;;;;;-5.05;68.07;101173.38;1768074;81;20858;-73
2022/01/27 00:27:35;;;;;;;52.80;36.48;;;;;;;-5.03;68.23;101175.96;1768382;81;20862;-72
2022/01/27 00:30:04;;;;;;;53.35;31.12;;;;;;;-5.04;68.14;101176.39;1768192;80;20944;-72
2022/01/27 00:32:31;;;;;;;46.25;29.20;;;;;;;-5.03;68.28;101178.52;1768333;81;20944;-72
2022/01/27 00:34:59;;;;;;;69.75;39.67;;;;;;;-5.02;68.28;101174.71;1768044;81;21131;-72
2022/01/27 00:37:26;;;;;;;64.60;38.50;;;;;;;-4.96;68.33;101172.64;1768511;80;21458;-73
2022/01/27 00:39:54;;;;;;;71.40;44.15;;;;;;;-4.93;68.16;101166.73;1768278;80;20861;-74
2022/01/27 00:42:22;;;;;;;54.30;33.73;;;;;;;-4.97;68.09;101177.33;1768054;81;20987;-73
2022/01/27 00:44:49;;;;;;;63.78;39.50;;;;;;;-4.98;68.13;101173.46;1767893;80;20920;-74
2022/01/27 00:47:16;;;;;;;65.85;42.27;;;;;;;-5.02;67.98;101170.03;1768263;80;22126;-73
2022/01/27 00:49:43;;;;;;;60.20;37.73;;;;;;;-5.06;68.17;101174.23;1768111;80;21386;-74
2022/01/27 00:52:15;;;;;;;52.65;34.50;;;;;;;-5.10;68.16;101163.52;1768120;80;20968;-73
2022/01/27 00:54:39;;;;;;;54.25;30.80;;;;;;;-5.09;68.36;101163.98;1767566;81;20901;-74
2022/01/27 00:57:18;;;;;;;43.87;28.55;;;;;;;-5.09;68.36;101161.81;1768142;80;20857;-74
2022/01/27 00:59:55;;;;;;;58.73;35.68;;;;;;;-5.10;68.30;101162.23;1766572;80;22026;-74
2022/01/27 01:02:27;;;;;;;53.02;30.23;;;;;;;-5.14;68.36;101155.36;1767073;80;21343;-74
2022/01/27 01:04:51;;;;;;;46.28;29.30;;;;;;;-5.15;68.47;101157.92;1766453;80;20853;-74
2022/01/27 01:07:15;;;;;;;46.28;28.92;;;;;;;-5.17;68.49;101160.88;1767544;81;20932;-74
2022/01/27 01:15:27;;;;;;;48.68;26.12;;;;;;;-5.01;68.68;101160.22;1768118;80;21050;-75
2022/01/27 01:17:59;;;;;;;42.93;26.23;;;;;;;-4.93;68.62;101159.91;1767294;81;21437;-75
2022/01/27 01:20:29;;;;;;;46.58;27.95;;;;;;;-4.93;68.28;101156.50;1766149;81;20892;-74
2022/01/27 01:33:58;;;;;;;42.53;26.15;;;;;;;-5.03;68.05;101153.80;1768041;81;20908;-72
2022/01/27 01:36:34;;;;;;;46.00;26.93;;;;;;;-5.12;68.25;101147.30;1767040;80;20944;-72
2022/01/27 01:38:47;;;;;;;44.60;27.40;;;;;;;-5.09;68.53;101151.19;1765200;80;21202;-72
2022/01/27 01:41:14;;;;;;;48.52;26.87;;;;;;;-5.04;68.47;101153.80;1768510;80;20881;-71
2022/01/27 01:43:41;;;;;;;48.02;26.42;;;;;;;-5.02;68.42;101158.09;1768095;80;21462;-72
2022/01/27 01:46:08;;;;;;;48.95;27.50;;;;;;;-5.03;68.24;101153.80;1768139;80;21011;-72
2022/01/27 01:48:35;;;;;;;44.60;26.17;;;;;;;-5.03;68.38;101165.30;1768104;80;20983;-72
2022/01/27 01:51:03;;;;;;;46.95;26.30;;;;;;;-5.02;68.28;101170.03;1768421;80;21478;-72
2022/01/27 01:53:31;;;;;;;47.17;27.05;;;;;;;-5.05;68.25;101163.14;1767996;81;20971;-74
2022/01/27 01:55:58;;;;;;;48.83;27.35;;;;;;;-5.10;68.33;101166.08;1768298;81;20885;-72
2022/01/27 01:58:25;;;;;;;46.92;28.20;;;;;;;-5.11;68.41;101166.93;1768058;81;21454;-75
2022/01/27 02:00:52;;;;;;;48.45;26.70;;;;;;;-5.10;68.26;101169.06;1768408;80;20928;-73
2022/01/27 02:03:19;;;;;;;44.53;25.27;;;;;;;-5.12;68.34;101163.91;1768023;81;23393;-74
2022/01/27 02:05:51;;;;;;;44.95;26.17;;;;;;;-5.14;68.27;101169.86;1770397;80;20872;-73
2022/01/27 02:19:18;;;;;;;56.28;35.13;;;;;;;-4.93;68.68;101171.41;1739422;82;21446;-74
2022/01/27 02:22:00;;;;;;;55.90;34.25;;;;;;;-4.90;68.45;101166.75;1722832;83;21370;-72
2022/01/27 02:24:30;;;;;;;56.23;34.70;;;;;;;-4.91;68.49;101162.46;1738919;82;21424;-73
2022/01/27 02:26:58;;;;;;;47.83;28.80;;;;;;;-4.90;68.37;101167.61;1778859;79;20879;-73
2022/01/27 02:29:25;;;;;;;46.95;28.60;;;;;;;-4.89;68.45;101159.50;1778920;79;21718;-73
2022/01/27 02:31:55;;;;;;;60.70;37.38;;;;;;;-4.87;68.40;101170.61;1778492;79;20920;-73
2022/01/27 02:34:22;;;;;;;49.25;30.45;;;;;;;-4.91;68.17;101164.62;1739253;82;20952;-73
2022/01/27 02:36:49;;;;;;;48.05;28.17;;;;;;;-5.01;68.24;101171.30;1738989;81;21449;-74
2022/01/27 02:39:17;;;;;;;48.33;28.12;;;;;;;-5.06;68.39;101169.55;1706658;83;20940;-73
2022/01/27 02:41:52;;;;;;;45.08;27.90;;;;;;;-5.13;68.46;101178.83;1723041;82;21188;-73
2022/01/27 02:44:55;;;;;;;48.20;29.67;;;;;;;-5.16;68.71;101180.48;1739280;82;20987;-73
2022/01/27 02:47:24;;;;;;;49.25;26.90;;;;;;;-5.19;68.79;101176.61;1772688;80;20954;-74
2022/01/27 02:49:52;;;;;;;43.80;29.23;;;;;;;-5.24;68.88;101174.84;1773117;79;21433;-74
2022/01/27 02:52:19;;;;;;;43.90;25.10;;;;;;;-5.27;68.96;101170.09;1772839;81;21003;-73
2022/01/27 02:54:46;;;;;;;45.30;26.87;;;;;;;-5.32;69.07;101181.97;1773096;80;21067;-72
2022/01/27 02:57:13;;;;;;;44.70;26.87;;;;;;;-5.34;69.31;101183.22;1772814;79;20865;-74
2022/01/27 02:59:40;;;;;;;47.00;28.83;;;;;;;-5.34;69.29;101175.97;1772770;81;20888;-74
2022/01/27 03:02:09;;;;;;;46.92;29.25;;;;;;;-5.41;69.26;101173.32;1772995;80;20983;-74
2022/01/27 03:04:36;;;;;;;50.43;28.67;;;;;;;-5.46;69.46;101176.23;1772816;79;20880;-72
2022/01/27 03:07:06;;;;;;;46.92;27.45;;;;;;;-5.46;69.87;101178.80;1772962;79;22145;-74
2022/01/27 03:09:33;;;;;;;55.25;31.75;;;;;;;-5.43;70.07;101176.27;1773128;80;21330;-74
2022/01/27 03:12:06;;;;;;;51.83;30.88;;;;;;;-5.35;70.15;101181.52;1772781;81;20892;-74
2022/01/27 03:14:33;;;;;;;61.95;33.92;;;;;;;-5.28;70.19;101174.36;1733547;81;20916;-74
2022/01/27 03:17:01;;;;;;;57.45;32.23;;;;;;;-5.22;69.99;101182.55;1733414;82;21051;-72
2022/01/27 03:19:28;;;;;;;51.28;30.80;;;;;;;-5.15;70.04;101180.94;1707755;82;21522;-74
2022/01/27 03:21:56;;;;;;;55.08;32.25;;;;;;;-5.07;69.79;101185.70;1772661;79;20877;-74
2022/01/27 03:24:27;;;;;;;52.17;31.90;;;;;;;-5.09;69.48;101187.38;1773088;81;20884;-74
2022/01/27 03:26:55;;;;;;;54.15;29.77;;;;;;;-5.16;69.59;101181.75;1772726;81;20876;-74
2022/01/27 03:29:22;;;;;;;52.83;30.62;;;;;;;-5.19;69.57;101182.58;1773319;79;21477;-73
2022/01/27 03:31:49;;;;;;;55.45;31.37;;;;;;;-5.21;69.65;101178.71;1772872;81;21105;-74
2022/01/27 03:34:16;;;;;;;52.38;28.92;;;;;;;-5.23;69.52;101184.22;1772746;79;20920;-73
2022/01/27 03:36:44;;;;;;;51.28;28.70;;;;;;;-5.21;69.80;101184.25;1772727;79;20899;-74
2022/01/27 03:39:11;;;;;;;52.55;29.12;;;;;;;-5.15;69.72;101189.88;1773110;81;20920;-73
2022/01/27 03:41:46;;;;;;;52.05;30.65;;;;;;;-5.17;69.45;101192.41;1772848;80;20971;-74
2022/01/27 03:44:08;;;;;;;55.03;30.85;;;;;;;-5.21;69.65;101196.61;1772179;79;21135;-74
2022/01/27 03:46:35;;;;;;;51.37;30.05;;;;;;;-5.14;69.85;101200.53;1775830;79;21426;-74
2022/01/27 03:49:02;;;;;;;56.70;32.73;;;;;;;-5.09;69.83;101195.05;1778509;80;20909;-73
2022/01/27 03:51:29;;;;;;;56.53;31.93;;;;;;;-5.02;69.74;101201.99;1778495;79;20935;-72
2022/01/27 03:53:57;;;;;;;60.35;32.93;;;;;;;-4.95;69.63;101195.26;1738943;82;20932;-72
2022/01/27 03:56:24;;;;;;;59.60;33.78;;;;;;;-4.92;69.40;101196.14;1739021;82;21126;-72
2022/01/27 03:58:51;;;;;;;47.62;31.00;;;;;;;-4.89;69.21;101197.87;1722770;83;20929;-73
2022/01/27 04:01:18;;;;;;;54.10;29.55;;;;;;;-4.95;68.92;101206.34;1739204;82;20980;-71
2022/01/27 04:03:45;;;;;;;49.38;29.57;;;;;;;-4.97;68.89;101196.94;1778825;80;20959;-72
2022/01/27 04:06:20;;;;;;;62.40;34.85;;;;;;;-5.05;68.87;101193.83;1739019;81;21019;-73
2022/01/27 04:08:42;;;;;;;64.17;38.30;;;;;;;-5.12;69.13;101200.14;1722356;82;21185;-74
2022/01/27 04:11:09;;;;;;;65.92;37.33;;;;;;;-5.13;69.18;101198.00;1738909;82;20948;-74
2022/01/27 04:13:36;;;;;;;58.58;33.90;;;;;;;-5.13;69.20;101206.95;1739172;82;20878;-71
2022/01/27 04:16:05;;;;;;;50.83;31.97;;;;;;;-5.16;69.33;101206.89;1778330;79;20920;-71
2022/01/27 04:18:32;;;;;;;53.40;32.05;;;;;;;-5.15;69.49;101207.35;1738942;82;21007;-72
2022/01/27 04:20:59;;;;;;;48.98;28.38;;;;;;;-5.17;69.62;101204.34;1739162;82;21116;-71
2022/01/27 04:23:26;;;;;;;52.13;29.80;;;;;;;-5.20;69.85;101203.88;1722934;83;20917;-72
2022/01/27 04:25:53;;;;;;;64.90;32.30;;;;;;;-5.16;70.16;101199.66;1738907;82;20941;-72
2022/01/27 04:28:28;;;;;;;60.98;32.58;;;;;;;-5.09;70.16;101206.16;1778574;80;20888;-73
2022/01/27 04:30:55;;;;;;;63.60;34.50;;;;;;;-5.01;70.29;101195.59;1778197;79;20884;-72
2022/01/27 04:33:27;;;;;;;64.22;35.20;;;;;;;-4.89;70.23;101195.31;1778631;80;21162;-71
2022/01/27 04:35:56;;;;;;;61.13;36.15;;;;;;;-4.80;70.09;101192.89;1778413;80;20872;-71
2022/01/27 04:38:37;;;;;;;66.97;36.00;;;;;;;-4.72;69.91;101192.55;1778261;80;20928;-72
2022/01/27 04:43:59;;;;;;;59.08;33.90;;;;;;;-4.62;69.58;101194.81;1779028;79;21373;-74
2022/01/27 04:46:33;;;;;;;;;;;;;;;-4.61;69.51;101197.79;1779935;80;21722;-72
2022/01/27 04:49:00;;;;;;;87.30;45.50;;;;;;;-4.60;69.41;101203.36;1777034;79;20091;-72
2022/01/27 04:51:24;;;;;;;70.12;39.88;;;;;;;-4.59;69.31;101202.50;1778065;80;20880;-72
2022/01/27 04:56:40;;;;;;;68.62;35.28;;;;;;;-4.57;69.15;101208.50;1778683;80;21311;-76
2022/01/27 04:59:15;;;;;;;60.43;32.67;;;;;;;-4.54;69.13;101212.80;1778455;80;21165;-74
2022/01/27 05:01:44;;;;;;;59.35;34.40;;;;;;;-4.52;69.09;101212.39;1777078;80;21390;-73
2022/01/27 05:04:15;;;;;;;58.02;32.42;;;;;;;-4.51;69.05;101216.27;1777697;80;20853;-74
2022/01/27 05:06:37;;;;;;;57.10;33.40;;;;;;;-4.50;69.01;101217.96;1777276;79;20927;-74
2022/01/27 05:09:06;;;;;;;66.22;36.35;;;;;;;-4.51;68.95;101221.38;1738880;82;20901;-74
2022/01/27 05:11:44;;;;;;;63.30;35.95;;;;;;;-4.51;68.93;101221.77;1722706;82;21311;-74
2022/01/27 05:14:24;;;;;;;60.88;32.50;;;;;;;-4.53;68.89;101225.62;1722321;82;21359;-75
2022/01/27 05:16:38;;;;;;;59.70;34.60;;;;;;;-4.53;68.94;101228.61;1737406;82;20854;-72
2022/01/27 05:19:05;;;;;;;61.15;35.70;;;;;;;-4.54;68.99;101230.71;1778513;79;20868;-73
2022/01/27 05:21:33;;;;;;;67.62;35.05;;;;;;;-4.55;69.05;101234.98;1778724;80;20975;-74
2022/01/27 05:24:03;;;;;;;73.80;38.67;;;;;;;-4.55;69.06;101237.53;1739067;82;22125;-73
2022/01/27 05:26:32;;;;;;;72.32;37.03;;;;;;;-4.55;69.13;101239.23;1738764;81;21485;-73
2022/01/27 05:28:58;;;;;;;65.25;35.20;;;;;;;-4.55;69.23;101237.53;1723143;82;20916;-74
2022/01/27 05:31:25;;;;;;;62.60;34.38;;;;;;;-4.50;69.26;101241.42;1739067;82;20881;-73
2022/01/27 05:33:52;;;;;;;61.40;34.13;;;;;;;-4.48;69.23;101247.42;1739274;82;20901;-73
2022/01/27 05:36:20;;;;;;;59.90;33.60;;;;;;;-4.49;69.20;101252.97;1778634;80;21391;-73
2022/01/27 05:38:47;;;;;;;62.90;34.00;;;;;;;-4.49;69.23;101246.97;1738866;81;20932;-73
2022/01/27 05:41:15;;;;;;;58.35;30.90;;;;;;;-4.48;69.24;101248.70;1738824;81;21326;-74
2022/01/27 05:43:43;;;;;;;60.23;32.50;;;;;;;-4.50;69.26;101243.98;1723029;83;20993;-75
2022/01/27 05:46:10;;;;;;;57.93;34.20;;;;;;;-4.50;69.31;101246.11;1708740;82;21012;-74
2022/01/27 05:48:36;;;;;;;64.22;35.78;;;;;;;-4.48;69.33;101252.11;1733361;81;21754;-74
2022/01/27 05:51:04;;;;;;;59.83;32.53;;;;;;;-4.44;69.39;101254.30;1707260;84;20898;-75
2022/01/27 05:53:32;;;;;;;67.67;34.92;;;;;;;-4.40;69.40;101258.19;1772615;79;21015;-75
2022/01/27 05:55:59;;;;;;;62.20;35.13;;;;;;;-4.34;69.41;101261.23;1772631;81;20955;-75
2022/01/27 06:00:58;;;;;;;79.42;42.17;;;;;;;-4.13;69.32;101246.97;1854661;77;22647;-75
2022/01/27 06:03:26;;;;;;;118.15;56.70;;;;;;;-4.12;69.27;101248.23;1822006;78;21538;-75
2022/01/27 06:05:53;;;;;;;130.35;63.02;;;;;;;-4.03;69.17;101251.31;1822056;78;21465;-76
2022/01/27 06:08:20;;;;;;;80.62;43.25;;;;;;;-3.99;69.00;101253.92;1822050;78;20911;-76
2022/01/27 06:10:47;;;;;;;60.28;34.60;;;;;;;-3.96;68.85;101261.66;1822204;78;20970;-76
2022/01/27 06:13:14;;;;;;;58.83;33.25;;;;;;;-3.91;68.78;101260.81;1821985;78;20927;-74
2022/01/27 06:15:42;;;;;;;54.55;31.50;;;;;;;-3.87;68.69;101258.30;1822412;78;20872;-73
2022/01/27 06:18:09;;;;;;;56.08;33.38;;;;;;;-3.80;68.54;101260.49;1822093;78;21140;-73
2022/01/27 06:20:39;;;;;;;59.75;32.28;;;;;;;-3.75;68.43;101262.27;1821871;78;21536;-74
2022/01/27 06:23:05;;;;;;;65.62;35.70;;;;;;;-3.70;68.40;101261.03;1822196;78;20923;-74
2022/01/27 06:25:32;;;;;;;62.45;34.70;;;;;;;-3.67;68.37;101260.19;1822163;78;20935;-74
2022/01/27 06:28:00;;;;;;;63.45;34.78;;;;;;;-3.61;68.27;101261.53;1822033;78;20884;-73
2022/01/27 06:30:27;;;;;;;60.00;36.05;;;;;;;-3.59;68.11;101256.84;1822330;78;22037;-73
2022/01/27 06:32:54;;;;;;;64.42;37.30;;;;;;;-3.54;68.05;101256.88;1821917;78;20911;-74
2022/01/27 06:35:21;;;;;;;73.60;39.08;;;;;;;-3.51;67.90;101255.64;1821970;78;20852;-74
2022/01/27 06:37:49;;;;;;;71.45;39.05;;;;;;;-3.47;67.79;101262.92;1822194;78;20920;-74
2022/01/27 06:40:16;;;;;;;75.72;41.98;;;;;;;-3.44;67.74;101262.53;1821932;78;20868;-74
2022/01/27 06:42:43;;;;;;;60.20;35.20;;;;;;;-3.38;67.77;101257.86;1822357;78;21742;-74
2022/01/27 06:45:10;;;;;;;64.17;36.68;;;;;;;-3.34;67.66;101262.16;1822109;78;20876;-75
2022/01/27 06:47:37;;;;;;;65.62;35.85;;;;;;;-3.28;67.59;101258.38;1821935;78;20982;-74
2022/01/27 06:50:05;;;;;;;58.52;35.38;;;;;;;-3.22;67.50;101263.55;1822131;78;21358;-74
2022/01/27 06:52:32;;;;;;;54.80;33.02;;;;;;;-3.16;67.39;101256.30;1822302;78;21357;-74
2022/01/27 06:55:01;;;;;;;54.53;33.35;;;;;;;-3.13;67.33;101257.63;1790049;78;22484;-73
2022/01/27 06:57:28;;;;;;;52.43;31.82;;;;;;;-3.10;67.28;101261.48;1821874;78;20955;-74
2022/01/27 06:59:57;;;;;;;53.55;33.05;;;;;;;-3.03;67.17;101263.66;1823419;78;21026;-74
2022/01/27 07:02:24;;;;;;;54.08;32.30;;;;;;;-2.99;67.08;101260.27;1825548;78;20868;-75
2022/01/27 07:04:51;;;;;;;54.90;33.08;;;;;;;-2.94;67.05;101260.72;1825353;78;20883;-74
2022/01/27 07:07:18;;;;;;;51.85;29.65;;;;;;;-2.88;67.03;101252.64;1825557;78;21087;-73
2022/01/27 07:09:46;;;;;;;50.67;31.20;;;;;;;-2.85;66.78;101252.64;1825440;78;20975;-74
2022/01/27 07:12:14;;;;;;;47.13;27.45;;;;;;;-2.91;66.66;101254.77;1824869;78;20883;-74
2022/01/27 07:14:40;;;;;;;48.95;30.57;;;;;;;-2.96;66.62;101250.02;1824735;78;21002;-74
2022/01/27 07:17:07;;;;;;;51.63;30.20;;;;;;;-3.02;66.88;101250.86;1824957;78;20899;-72
2022/01/27 07:19:34;;;;;;;49.70;27.95;;;;;;;-2.94;67.12;101253.45;1824950;78;21693;-75
2022/01/27 07:22:01;;;;;;;52.20;28.15;;;;;;;-2.85;67.08;101262.91;1825023;78;20915;-75
2022/01/27 07:24:28;;;;;;;46.13;27.98;;;;;;;-2.77;67.08;101267.67;1824852;78;20966;-75
2022/01/27 07:26:55;;;;;;;42.85;26.15;;;;;;;-2.71;66.91;101268.98;1824938;78;20947;-73
2022/01/27 07:29:21;;;;;;;38.75;25.52;;;;;;;-2.67;66.66;101269.41;1825024;78;21356;-74
2022/01/27 07:31:48;;;;;;;46.50;28.80;;;;;;;-2.64;66.61;101269.88;1825150;78;21570;-73
2022/01/27 07:34:15;;;;;;;36.15;24.25;;;;;;;-2.60;66.52;101272.47;1824788;78;20959;-73
2022/01/27 07:36:42;;;;;;;43.33;26.00;;;;;;;-2.57;66.21;101272.90;1824945;78;20923;-75
2022/01/27 07:39:14;;;;;;;39.65;25.37;;;;;;;-2.61;66.08;101269.88;1824855;78;20967;-74
2022/01/27 07:41:37;;;;;;;42.30;25.35;;;;;;;-2.61;66.06;101273.30;1825096;78;20927;-73
2022/01/27 07:44:04;;;;;;;42.33;24.30;;;;;;;-2.62;66.26;101269.03;1825253;78;22195;-73
2022/01/27 07:46:32;;;;;;;43.50;25.45;;;;;;;-2.60;66.11;101268.61;1824828;78;21030;-75
2022/01/27 07:48:59;;;;;;;39.42;22.42;;;;;;;-2.55;66.08;101268.63;1824971;78;20883;-74
2022/01/27 07:51:26;;;;;;;37.00;24.05;;;;;;;-2.57;66.07;101271.62;1824834;78;21426;-74
2022/01/27 07:53:53;;;;;;;36.20;22.17;;;;;;;-2.57;66.00;101273.75;1824999;78;20876;-73
2022/01/27 07:56:20;;;;;;;31.60;20.08;;;;;;;-2.54;65.86;101269.05;1825193;78;21088;-75
2022/01/27 07:58:47;;;;;;;34.73;21.33;;;;;;;-2.52;65.57;101281.04;1824767;78;20856;-74
2022/01/27 08:01:14;;;;;;;33.67;20.68;;;;;;;-2.50;65.51;101275.48;1821768;78;20907;-73
2022/01/27 08:03:41;;;;;;;35.85;21.95;;;;;;;-2.42;65.60;101272.97;1821252;78;21385;-73
2022/01/27 08:06:08;;;;;;;33.80;20.27;;;;;;;-2.30;65.38;101284.98;1821842;78;20939;-73
2022/01/27 08:08:36;;;;;;;34.78;21.40;;;;;;;-2.18;65.04;101276.05;1821353;78;21917;-74
2022/01/27 08:11:03;;;;;;;37.58;22.75;;;;;;;-2.08;64.81;101282.06;1821640;78;20895;-74
2022/01/27 08:13:30;;;;;;;37.90;22.55;;;;;;;-1.98;64.73;101281.64;1821489;78;20903;-75
2022/01/27 08:15:57;;;;;;;40.48;22.90;;;;;;;-1.84;64.63;101279.12;1821314;78;20908;-76
2022/01/27 08:18:24;;;;;;;34.75;22.17;;;;;;;-1.78;64.42;101276.14;1821419;78;21310;-74
2022/01/27 08:20:51;;;;;;;35.98;24.45;;;;;;;-1.66;64.36;101276.57;1821352;78;21096;-76
2022/01/27 08:23:17;;;;;;;40.43;22.85;;;;;;;-1.54;64.33;101280.85;1821522;78;20920;-73
2022/01/27 08:25:49;;;;;;;47.73;25.20;;;;;;;-1.41;64.08;101272.72;1821337;78;20990;-74
2022/01/27 08:28:25;;;;;;;42.55;25.10;;;;;;;-1.33;63.76;101275.72;1820979;78;20920;-74
2022/01/27 08:30:49;;;;;;;41.98;24.47;;;;;;;-1.24;63.54;101274.86;1819815;78;20998;-74
2022/01/27 08:33:17;;;;;;;40.17;25.15;;;;;;;-1.14;63.26;101278.27;1820945;78;21544;-75
2022/01/27 08:35:43;;;;;;;36.53;22.32;;;;;;;-1.03;63.12;101279.55;1821662;78;21361;-77
2022/01/27 08:38:10;;;;;;;38.20;23.07;;;;;;;-0.95;62.82;101275.25;1821541;78;20856;-80
2022/01/27 08:40:37;;;;;;;37.78;22.22;;;;;;;-0.93;62.58;101282.55;1821349;78;20935;-74
2022/01/27 08:43:04;;;;;;;38.35;24.10;;;;;;;-0.95;62.54;101276.10;1821364;78;20828;-76
2022/01/27 08:45:32;;;;;;;37.90;23.65;;;;;;;-0.92;62.70;101277.37;1821690;78;21212;-76
2022/01/27 08:48:00;;;;;;;35.83;23.20;;;;;;;-0.83;62.67;101279.06;1821282;78;21377;-75
2022/01/27 08:50:28;;;;;;;35.35;22.65;;;;;;;-0.75;62.18;101281.20;1821313;78;21512;-75
2022/01/27 08:52:55;;;;;;;40.90;24.85;;;;;;;-0.72;62.15;101280.33;1821186;78;20856;-77
2022/01/27 08:55:22;;;;;;;40.70;26.05;;;;;;;-0.63;62.11;101277.73;1821645;78;21504;-76
2022/01/27 08:57:50;;;;;;;38.38;23.73;;;;;;;-0.55;61.80;101270.84;1821659;78;21183;-75
2022/01/27 09:00:21;;;;;;;32.60;20.80;;;;;;;-0.47;61.57;101275.95;1821042;78;20977;-73
2022/01/27 09:02:48;;;;;;;33.05;21.70;;;;;;;-0.45;61.51;101269.92;1821339;78;20966;-75
2022/01/27 09:05:15;;;;;;;36.03;23.20;;;;;;;-0.34;61.61;101267.74;1821381;78;21349;-74
2022/01/27 09:07:42;;;;;;;34.40;23.18;;;;;;;-0.27;61.50;101265.55;1821282;78;21045;-75
2022/01/27 09:10:10;;;;;;;33.50;21.68;;;;;;;-0.22;61.68;101267.26;1821450;78;21081;-78
2022/01/27 09:12:36;;;;;;;34.58;22.32;;;;;;;-0.13;61.52;101263.78;1821300;78;20887;-75
2022/01/27 09:15:05;;;;;;;31.87;20.52;;;;;;;-0.05;61.27;101263.28;1821304;78;20924;-75
2022/01/27 09:17:39;;;;;;;36.73;22.85;;;;;;;0.01;61.23;101270.58;1821129;78;21338;-76
2022/01/27 09:20:03;;;;;;;31.70;20.55;;;;;;;0.04;60.87;101263.66;1820701;78;20924;-75
2022/01/27 09:22:30;;;;;;;30.97;20.40;;;;;;;0.12;60.57;101259.32;1821535;78;21934;-75
2022/01/27 09:25:09;;;;;;;30.12;20.40;;;;;;;0.12;60.29;101261.05;1821359;78;20924;-75
2022/01/27 09:27:27;;;;;;;30.95;19.12;;;;;;;0.17;60.08;101256.70;1818753;78;20950;-75
2022/01/27 09:29:54;;;;;;;29.87;19.48;;;;;;;0.23;59.86;101253.25;1821287;78;21477;-75
2022/01/27 09:32:21;;;;;;;28.40;18.25;;;;;;;0.28;59.40;101251.48;1821419;78;20971;-74
2022/01/27 09:34:48;;;;;;;25.15;16.95;;;;;;;0.31;59.31;101245.88;1821264;78;21116;-74
2022/01/27 09:37:15;;;;;;;26.05;17.17;;;;;;;0.37;59.04;101243.66;1821342;78;20879;-75
2022/01/27 09:39:42;;;;;;;28.02;17.23;;;;;;;0.44;58.70;101241.89;1821211;78;20872;-74
2022/01/27 09:42:09;;;;;;;26.00;15.85;;;;;;;0.48;58.29;101234.11;1821405;78;20892;-73
2022/01/27 09:44:37;;;;;;;34.90;18.10;;;;;;;0.56;58.13;101230.19;1821269;78;21448;-76
2022/01/27 09:47:10;;;;;;;28.35;17.98;;;;;;;0.66;58.20;101238.25;1821219;78;21508;-73
2022/01/27 09:49:42;;;;;;;23.83;15.38;;;;;;;0.77;57.92;101231.70;1821196;78;21009;-75
2022/01/27 09:52:06;;;;;;;24.82;15.43;;;;;;;0.77;57.46;101242.88;1820737;78;20967;-74
2022/01/27 09:54:34;;;;;;;22.25;14.23;;;;;;;0.77;56.91;101238.16;1821343;78;21337;-75
2022/01/27 09:57:02;;;;;;;19.30;12.93;;;;;;;0.73;57.05;101238.61;1821232;78;20887;-75
2022/01/27 09:59:29;;;;;;;45.25;22.90;;;;;;;0.72;56.28;101234.77;1821422;78;21134;-76
2022/01/27 10:02:01;;;;;;;35.68;19.95;;;;;;;0.67;56.40;101233.53;1821329;78;20923;-78
2022/01/27 10:04:48;;;;;;;22.37;13.45;;;;;;;0.73;56.30;101232.16;1816724;78;21447;-76
2022/01/27 10:07:22;;;;;;;16.12;10.85;;;;;;;0.81;55.42;101234.68;1821329;78;20903;-80
2022/01/27 10:09:59;;;;;;;23.70;13.83;;;;;;;0.76;55.45;101232.59;1821287;78;20978;-74
2022/01/27 10:12:33;;;;;;;16.75;11.45;;;;;;;0.71;56.03;101236.92;1821452;78;21084;-75
2022/01/27 10:15:11;;;;;;;18.60;10.85;;;;;;;0.77;55.15;101243.32;1821813;78;20912;-75
2022/01/27 10:17:42;;;;;;;50.58;14.30;;;;;;;0.78;55.22;101237.30;1820820;78;20915;-77
2022/01/27 10:20:18;;;;;;;14.07;10.68;;;;;;;0.83;55.28;101241.98;1816682;78;20935;-75
2022/01/27 10:23:16;;;;;;;10.88;6.83;;;;;;;0.87;53.82;101242.78;1821334;78;21401;-74
2022/01/27 10:25:50;;;;;;;8.73;4.58;;;;;;;0.87;51.64;101244.95;1821767;78;21586;-75
2022/01/27 10:31:06;;;;;;;4.12;2.75;;;;;;;0.96;49.53;101237.11;1821636;78;20868;-74
2022/01/27 10:33:48;;;;;;;2.92;2.40;;;;;;;1.02;47.22;101233.59;1820743;78;20848;-75
2022/01/27 10:36:24;;;;;;;4.47;2.72;;;;;;;0.94;46.52;101233.69;1821530;78;20935;-74
2022/01/27 10:38:58;;;;;;;3.90;2.75;;;;;;;0.83;46.62;101227.78;1821255;78;21135;-74
2022/01/27 10:41:28;;;;;;;5.40;3.95;;;;;;;0.65;46.84;101234.42;1821329;78;20848;-75
2022/01/27 10:44:13;;;;;;;4.95;2.80;;;;;;;0.55;47.19;101233.18;1821039;78;20871;-75
2022/01/27 10:46:49;;;;;;;6.42;4.05;;;;;;;0.42;46.64;101232.86;1821209;78;20896;-74
2022/01/27 10:49:24;;;;;;;14.90;8.85;;;;;;;0.33;46.59;101226.05;1816032;78;20903;-73
2022/01/27 10:51:51;;;;;;;12.70;8.85;;;;;;;0.28;47.50;101229.11;1819467;78;21139;-75
2022/01/27 10:56:44;;;;;;;5.12;2.87;;;;;;;0.50;47.19;101224.63;1821834;78;21012;-74
2022/01/27 10:59:18;;;;;;;5.25;2.33;;;;;;;0.91;46.38;101216.95;1821131;78;20931;-74
2022/01/27 11:01:48;;;;;;;4.50;2.45;;;;;;;1.32;45.25;101216.91;1821106;78;20918;-75
2022/01/27 11:04:16;;;;;;;2.85;2.42;;;;;;;1.62;45.23;101207.91;1821418;78;21806;-74
2022/01/27 11:06:57;;;;;;;4.28;2.75;;;;;;;1.78;44.47;101207.67;1821345;78;21408;-74
2022/01/27 11:09:24;;;;;;;4.78;2.37;;;;;;;1.79;43.97;101210.24;1821044;78;20927;-75
2022/01/27 11:11:53;;;;;;;3.33;2.40;;;;;;;1.71;43.78;101204.77;1821611;78;20897;-73
2022/01/27 11:14:20;;;;;;;4.05;2.72;;;;;;;1.72;43.93;101203.91;1821450;78;21433;-74
2022/01/27 11:16:50;;;;;;;4.35;3.02;;;;;;;1.66;43.12;101203.09;1821291;78;21152;-74
2022/01/27 11:22:07;;;;;;;5.70;3.52;;;;;;;1.43;42.89;101199.97;1821391;78;21396;-72
2022/01/27 11:24:30;;;;;;;5.17;3.27;;;;;;;1.20;43.36;101200.23;1815348;78;21359;-72
2022/01/27 11:26:59;;;;;;;5.20;3.62;;;;;;;1.04;43.68;101198.28;1821340;78;21002;-72
2022/01/27 11:29:26;;;;;;;6.30;3.50;;;;;;;0.94;43.77;101191.52;1821396;78;21066;-73
2022/01/27 11:32:13;;;;;;;5.58;3.42;;;;;;;0.81;44.31;101192.08;1821656;78;20860;-74
2022/01/27 11:34:52;;;;;;;5.65;3.67;;;;;;;0.76;44.99;101184.83;1821631;78;21342;-73
2022/01/27 11:37:34;;;;;;;7.25;4.03;;;;;;;0.73;44.88;101188.72;1821489;78;20915;-74
2022/01/27 11:40:07;;;;;;;6.10;4.65;;;;;;;0.73;44.66;101187.42;1821301;78;21061;-73
2022/01/27 11:42:44;;;;;;;6.28;3.60;;;;;;;0.76;44.85;101186.97;1821244;78;21144;-74
2022/01/27 11:45:28;;;;;;;5.75;4.05;;;;;;;0.79;44.50;101188.22;1820549;78;21025;-73
2022/01/27 11:48:06;;;;;;;8.78;4.70;;;;;;;0.74;44.30;101181.41;1821865;78;20920;-82
2022/01/27 11:50:37;;;;;;;6.83;5.08;;;;;;;0.68;44.17;101172.43;1822000;78;28053;-74
2022/01/27 11:53:08;;;;;;;6.78;4.75;;;;;;;0.66;44.63;101180.18;1821579;78;20879;-73
2022/01/27 11:55:40;;;;;;;8.35;4.55;;;;;;;0.61;44.25;101181.96;1821364;78;21141;-77
2022/01/27 11:58:19;;;;;;;12.60;6.08;;;;;;;0.49;44.47;101183.36;1821864;78;20896;-81
2022/01/27 12:01:03;;;;;;;12.78;6.47;;;;;;;0.39;44.58;101190.33;1821688;78;20978;-84
2022/01/27 12:03:34;;;;;;;8.55;4.62;;;;;;;0.34;44.83;101189.09;1750385;80;20947;-79
2022/01/27 12:06:22;;;;;;;8.98;4.42;;;;;;;0.35;44.75;101188.20;1751509;81;20883;-84
2022/01/27 12:08:49;;;;;;;11.53;6.60;;;;;;;0.34;44.53;101179.21;1715238;83;21102;-88
2022/01/27 12:11:50;;;;;;;9.88;5.42;;;;;;;0.34;44.97;101177.92;1714949;82;21054;-74